Time;durP1;ratioP1;P1;durP2;ratioP2;P2;SDS_P1;SDS_P2;PMS_P1;PMS_P2;Temp;Humidity;BMP_temperature;BMP_pressure;BME280_temperature;BME280_humidity;BME280_pressure;Samples;Min_cycle;Max_cycle;Signal;HPM_P1;HPM_P2
2022/04/20 00:00:34;;;;;;;7.78;4.38;;;6.80;99.90;;;;;;5056814;28;20048;-75
2022/04/20 00:03:02;;;;;;;9.85;4.35;;;6.40;99.90;;;;;;5057286;28;20119;-75
2022/04/20 00:05:30;;;;;;;6.80;4.15;;;6.60;99.90;;;;;;5074505;28;20048;-75
2022/04/20 00:07:56;;;;;;;8.38;3.88;;;6.30;99.90;;;;;;5074388;28;20128;-75
2022/04/20 00:10:22;;;;;;;8.45;4.30;;;6.30;99.90;;;;;;5074582;28;20119;-75
2022/04/20 00:12:47;;;;;;;5.90;3.85;;;6.30;99.90;;;;;;5074600;28;20428;-75
2022/04/20 00:15:13;;;;;;;9.00;4.10;;;6.30;99.90;;;;;;5055076;28;20040;-75
2022/04/20 00:17:39;;;;;;;8.45;4.60;;;6.20;99.90;;;;;;5059448;28;20049;-75
2022/04/20 00:20:05;;;;;;;7.50;3.92;;;6.20;99.90;;;;;;5053282;28;20090;-79
2022/04/20 00:22:31;;;;;;;7.72;3.80;;;6.20;99.90;;;;;;5073621;28;20055;-79
2022/04/20 00:24:57;;;;;;;6.57;3.95;;;6.10;99.90;;;;;;5057636;28;20044;-79
2022/04/20 00:27:22;;;;;;;6.38;4.10;;;6.10;99.90;;;;;;5057625;28;20041;-79
2022/04/20 00:29:48;;;;;;;9.05;4.03;;;6.00;99.90;;;;;;5037783;28;20099;-79
2022/04/20 00:32:14;;;;;;;6.22;4.18;;;5.90;99.90;;;;;;5071954;28;20033;-79
2022/04/20 00:34:39;;;;;;;6.78;4.13;;;5.80;99.90;;;;;;5047437;28;20083;-78
2022/04/20 00:37:05;;;;;;;7.57;4.10;;;5.80;99.90;;;;;;5074424;28;20565;-75
2022/04/20 00:39:32;;;;;;;8.52;4.63;;;5.80;99.90;;;;;;5074182;28;20071;-75
2022/04/20 00:41:58;;;;;;;9.32;4.03;;;5.70;99.90;;;;;;5057686;28;20040;-75
2022/04/20 00:44:24;;;;;;;7.50;4.68;;;5.60;99.90;;;;;;5073714;28;20561;-75
2022/04/20 00:46:51;;;;;;;8.38;3.95;;;5.60;99.90;;;;;;5057556;28;20032;-75
2022/04/20 00:49:18;;;;;;;7.63;4.25;;;5.70;99.90;;;;;;5073668;28;20084;-75
2022/04/20 00:51:56;;;;;;;7.32;4.25;;;5.50;99.90;;;;;;5057791;28;20033;-79
2022/04/20 00:54:22;;;;;;;8.25;4.15;;;5.50;99.90;;;;;;5073690;28;20531;-80
2022/04/20 00:56:47;;;;;;;11.98;4.55;;;5.50;99.90;;;;;;5070606;28;20115;-80
2022/04/20 00:59:15;;;;;;;7.20;4.20;;;5.50;99.90;;;;;;5070114;28;20482;-80
2022/04/20 01:01:41;;;;;;;6.05;4.10;;;5.70;99.90;;;;;;5073805;28;20098;-79
2022/04/20 01:04:07;;;;;;;8.02;4.50;;;5.40;99.90;;;;;;5073619;28;20046;-79
2022/04/20 01:06:34;;;;;;;8.18;4.47;;;5.40;99.90;;;;;;5056267;28;20036;-80
2022/04/20 01:09:00;;;;;;;9.65;4.13;;;5.40;99.90;;;;;;5069743;28;20032;-80
2022/04/20 01:11:27;;;;;;;6.20;4.22;;;5.30;99.90;;;;;;5043663;28;20040;-80
2022/04/20 01:13:53;;;;;;;9.45;4.03;;;5.30;99.90;;;;;;5056885;28;20044;-80
2022/04/20 01:16:19;;;;;;;7.80;4.28;;;5.30;99.90;;;;;;5056690;28;20085;-79
2022/04/20 01:18:44;;;;;;;12.07;4.82;;;5.20;99.90;;;;;;5055920;28;20426;-81
2022/04/20 01:21:11;;;;;;;7.90;4.63;;;5.20;99.90;;;;;;5067417;28;20041;-80
2022/04/20 01:23:38;;;;;;;7.32;4.28;;;5.20;99.90;;;;;;5053738;28;20040;-80
2022/04/20 01:26:08;;;;;;;7.05;4.10;;;5.20;99.90;;;;;;5056357;28;20051;-79
2022/04/20 01:28:36;;;;;;;7.15;4.53;;;5.20;99.90;;;;;;5056591;28;20474;-79
2022/04/20 01:31:02;;;;;;;9.23;4.50;;;5.10;99.90;;;;;;5073803;28;20048;-78
2022/04/20 01:33:28;;;;;;;6.50;4.40;;;5.30;99.90;;;;;;5043210;28;20545;-79
2022/04/20 01:35:54;;;;;;;8.65;4.55;;;5.10;99.90;;;;;;5072801;28;20033;-78
2022/04/20 01:38:19;;;;;;;6.00;4.05;;;5.10;99.90;;;;;;5056423;28;20032;-78
2022/04/20 01:40:45;;;;;;;6.88;4.15;;;5.10;99.90;;;;;;5072175;28;20119;-79
2022/04/20 01:43:11;;;;;;;6.40;4.25;;;5.00;99.90;;;;;;5055741;28;20041;-75
2022/04/20 01:45:37;;;;;;;8.65;4.30;;;5.00;99.90;;;;;;5054740;28;20475;-75
2022/04/20 01:48:03;;;;;;;8.13;4.35;;;5.10;99.90;;;;;;5041254;28;20127;-75
2022/04/20 01:50:29;;;;;;;7.18;4.22;;;4.90;99.90;;;;;;5052747;28;20055;-75
2022/04/20 01:52:54;;;;;;;7.68;4.57;;;4.90;99.90;;;;;;5056457;28;20028;-75
2022/04/20 01:55:20;;;;;;;6.57;4.10;;;4.90;99.90;;;;;;5071459;28;20082;-75
2022/04/20 01:57:46;;;;;;;7.13;4.50;;;4.90;99.90;;;;;;5072873;28;20494;-75
2022/04/20 02:00:12;;;;;;;7.57;4.30;;;4.90;99.90;;;;;;5055952;28;20387;-75
2022/04/20 02:02:38;;;;;;;6.90;4.30;;;4.80;99.90;;;;;;5056549;28;20051;-75
2022/04/20 02:05:11;;;;;;;7.32;4.18;;;4.80;99.90;;;;;;5054843;28;20045;-75
2022/04/20 02:07:37;;;;;;;8.23;4.22;;;4.80;99.90;;;;;;5071809;28;20044;-75
2022/04/20 02:10:05;;;;;;;6.80;4.60;;;4.70;99.90;;;;;;5055568;28;20037;-75
2022/04/20 02:12:30;;;;;;;7.30;4.70;;;4.70;99.90;;;;;;5051196;28;20363;-75
2022/04/20 02:14:56;;;;;;;8.38;5.32;;;4.70;99.90;;;;;;5072705;28;20052;-79
2022/04/20 02:17:22;;;;;;;9.50;4.85;;;4.60;99.90;;;;;;5072872;28;20036;-80
2022/04/20 02:19:48;;;;;;;8.23;4.50;;;4.50;99.90;;;;;;5072963;28;20040;-79
2022/04/20 02:22:14;;;;;;;7.55;4.57;;;4.50;99.90;;;;;;5061332;28;20051;-80
2022/04/20 02:24:40;;;;;;;9.07;4.82;;;4.50;99.90;;;;;;5046259;28;20123;-80
2022/04/20 02:27:08;;;;;;;7.40;4.80;;;4.90;99.90;;;;;;5068582;28;20586;-79
2022/04/20 02:29:34;;;;;;;7.10;4.68;;;4.40;99.90;;;;;;5055887;28;20076;-79
2022/04/20 02:31:59;;;;;;;9.95;4.82;;;4.40;99.90;;;;;;5056727;28;20071;-75
2022/04/20 02:34:25;;;;;;;7.53;4.38;;;4.30;99.90;;;;;;5056117;28;20036;-75
2022/04/20 02:36:51;;;;;;;9.05;4.63;;;4.30;99.90;;;;;;5036240;28;20049;-75
2022/04/20 02:39:18;;;;;;;8.55;4.90;;;4.20;99.90;;;;;;5053532;28;20032;-75
2022/04/20 02:41:44;;;;;;;7.75;4.55;;;4.20;99.90;;;;;;5072780;28;20041;-74
2022/04/20 02:44:10;;;;;;;7.97;4.55;;;4.20;99.90;;;;;;5072417;28;20048;-74
2022/04/20 02:46:36;;;;;;;7.78;4.72;;;4.10;99.90;;;;;;5072567;28;20044;-75
2022/04/20 02:49:02;;;;;;;7.75;4.70;;;4.10;99.90;;;;;;5072269;28;20049;-75
2022/04/20 02:51:28;;;;;;;7.60;4.93;;;4.10;99.90;;;;;;5072451;28;20128;-75
2022/04/20 02:53:53;;;;;;;8.43;4.88;;;4.40;99.90;;;;;;5055458;28;20119;-75
2022/04/20 02:56:19;;;;;;;8.80;5.13;;;4.10;99.90;;;;;;5054369;28;20032;-75
2022/04/20 02:58:45;;;;;;;9.30;5.05;;;4.10;99.90;;;;;;5072001;28;20375;-75
2022/04/20 03:01:11;;;;;;;8.18;5.20;;;4.10;99.90;;;;;;5072274;28;20068;-75
2022/04/20 03:03:36;;;;;;;9.18;5.13;;;4.10;99.90;;;;;;5055314;28;20045;-75
2022/04/20 03:06:02;;;;;;;13.88;5.63;;;4.10;99.90;;;;;;5072478;28;20123;-78
2022/04/20 03:08:28;;;;;;;10.13;5.38;;;4.10;99.90;;;;;;5071593;28;20067;-78
2022/04/20 03:10:54;;;;;;;8.65;5.75;;;4.10;99.90;;;;;;5071734;28;20459;-79
2022/04/20 03:13:19;;;;;;;9.43;5.35;;;4.10;99.90;;;;;;5072011;28;20039;-78
2022/04/20 03:15:46;;;;;;;7.38;5.20;;;4.00;99.90;;;;;;5072742;28;20098;-78
2022/04/20 03:18:12;;;;;;;8.65;5.60;;;4.10;99.90;;;;;;5038599;28;20082;-78
2022/04/20 03:20:38;;;;;;;8.60;5.15;;;4.00;99.90;;;;;;5071369;28;20094;-78
2022/04/20 03:23:06;;;;;;;10.18;5.10;;;4.00;99.90;;;;;;5055343;28;20526;-78
2022/04/20 03:25:31;;;;;;;9.00;5.53;;;3.90;99.90;;;;;;5050586;28;20115;-78
2022/04/20 03:27:57;;;;;;;9.52;5.40;;;3.90;99.90;;;;;;5051975;28;20124;-79
2022/04/20 03:30:23;;;;;;;8.15;5.25;;;3.90;99.90;;;;;;5037806;28;20102;-78
2022/04/20 03:32:48;;;;;;;10.25;5.32;;;3.80;99.90;;;;;;5071297;28;20040;-78
2022/04/20 03:35:15;;;;;;;8.95;5.15;;;3.80;99.90;;;;;;5072417;28;20039;-78
2022/04/20 03:37:41;;;;;;;8.02;5.03;;;4.40;99.90;;;;;;5072180;28;20040;-78
2022/04/20 03:40:08;;;;;;;8.27;4.97;;;3.80;99.90;;;;;;5054650;28;20102;-79
2022/04/20 03:42:34;;;;;;;7.70;5.13;;;3.80;99.90;;;;;;5055177;28;20067;-79
2022/04/20 03:45:00;;;;;;;9.23;5.40;;;3.80;99.90;;;;;;5072263;28;20048;-79
2022/04/20 03:47:26;;;;;;;8.40;5.28;;;3.80;99.90;;;;;;5062495;28;20072;-80
2022/04/20 03:49:52;;;;;;;9.07;5.63;;;3.80;99.90;;;;;;5070820;28;20078;-79
2022/04/20 03:52:18;;;;;;;12.65;6.43;;;3.80;99.90;;;;;;5055419;28;20075;-79
2022/04/20 03:54:44;;;;;;;11.18;5.57;;;3.80;99.90;;;;;;5054137;28;20580;-79
2022/04/20 03:57:10;;;;;;;11.43;5.38;;;3.60;99.90;;;;;;5072189;28;20055;-75
2022/04/20 03:59:37;;;;;;;9.38;4.93;;;4.40;99.90;;;;;;5054328;28;20106;-75
2022/04/20 04:02:07;;;;;;;8.73;5.40;;;3.70;99.90;;;;;;5069591;28;20379;-74
2022/04/20 04:04:33;;;;;;;9.45;5.43;;;3.70;99.90;;;;;;5071892;28;20383;-75
2022/04/20 04:06:59;;;;;;;9.80;5.63;;;3.70;99.90;;;;;;5071609;28;20060;-75
2022/04/20 04:09:25;;;;;;;14.07;5.50;;;3.60;99.90;;;;;;5037416;28;20060;-75
2022/04/20 04:11:50;;;;;;;7.18;5.18;;;3.70;99.90;;;;;;5056828;28;20119;-79
2022/04/20 04:14:17;;;;;;;11.23;5.47;;;3.70;99.90;;;;;;5064855;28;20459;-79
2022/04/20 04:16:44;;;;;;;8.07;5.65;;;3.60;99.90;;;;;;5071865;28;20090;-79
2022/04/20 04:19:11;;;;;;;9.05;5.50;;;3.60;99.90;;;;;;5075307;28;20111;-79
2022/04/20 04:21:38;;;;;;;8.10;5.32;;;3.60;99.90;;;;;;5071529;28;20102;-79
2022/04/20 04:24:08;;;;;;;9.55;5.88;;;3.70;99.90;;;;;;5068139;28;20041;-79
2022/04/20 04:26:37;;;;;;;9.50;6.05;;;3.70;99.90;;;;;;5052207;28;20040;-82
2022/04/20 04:29:03;;;;;;;8.43;5.75;;;3.80;99.90;;;;;;5036236;28;20088;-82
2022/04/20 04:31:29;;;;;;;11.07;5.93;;;3.60;99.90;;;;;;5063575;28;20493;-83
2022/04/20 04:33:54;;;;;;;9.18;5.65;;;3.70;99.90;;;;;;5071367;28;20036;-82
2022/04/20 04:36:20;;;;;;;9.10;5.60;;;3.80;99.90;;;;;;5074172;28;20057;-82
2022/04/20 04:38:46;;;;;;;10.73;6.45;;;3.60;99.90;;;;;;5043868;28;20386;-82
2022/04/20 04:41:11;;;;;;;12.68;6.10;;;3.70;99.90;;;;;;5058403;28;20040;-82
2022/04/20 04:43:37;;;;;;;10.85;5.93;;;3.90;99.90;;;;;;5057363;28;20068;-82
2022/04/20 04:48:48;;;;;;;9.70;6.13;;;3.60;99.90;;;;;;5059061;28;20115;-77
2022/04/20 04:51:15;;;;;;;14.07;6.23;;;4.60;99.90;;;;;;5069973;28;20048;-76
2022/04/20 04:53:41;;;;;;;9.35;6.22;;;3.60;99.90;;;;;;5074554;28;20032;-76
2022/04/20 04:56:07;;;;;;;12.52;6.60;;;3.60;99.90;;;;;;5058027;28;20059;-76
2022/04/20 04:58:33;;;;;;;11.75;6.30;;;3.60;99.90;;;;;;5074346;28;20040;-76
2022/04/20 05:00:59;;;;;;;10.30;6.03;;;3.70;99.90;;;;;;5072644;28;20115;-76
2022/04/20 05:03:25;;;;;;;15.80;6.22;;;3.80;99.90;;;;;;5035397;28;20037;-80
2022/04/20 05:05:52;;;;;;;11.73;6.50;;;3.90;99.90;;;;;;5049746;28;20036;-80
2022/04/20 05:08:17;;;;;;;9.90;5.55;;;4.00;99.90;;;;;;5063009;28;20049;-80
2022/04/20 05:10:43;;;;;;;10.45;6.28;;;4.40;99.90;;;;;;5052339;28;20039;-79
2022/04/20 05:13:09;;;;;;;10.70;6.13;;;4.30;99.90;;;;;;5063866;28;20036;-80
2022/04/20 05:15:36;;;;;;;11.32;6.65;;;4.50;99.90;;;;;;5045296;28;20543;-80
2022/04/20 05:18:02;;;;;;;9.75;6.25;;;4.70;99.90;;;;;;5070735;22;20045;-83
2022/04/20 05:20:28;;;;;;;9.55;5.75;;;4.90;99.90;;;;;;5019880;28;20097;-87
2022/04/20 05:22:54;;;;;;;10.45;6.35;;;6.40;99.90;;;;;;5038184;28;20121;-87
2022/04/20 05:25:20;;;;;;;9.60;6.07;;;5.30;99.90;;;;;;5025278;28;20048;-87
2022/04/20 05:27:46;;;;;;;8.50;5.20;;;5.40;99.90;;;;;;5001500;28;20053;-87
2022/04/20 05:30:14;;;;;;;9.45;5.90;;;5.50;99.90;;;;;;5032557;28;20041;-88
2022/04/20 05:32:40;;;;;;;10.80;5.95;;;5.60;99.90;;;;;;5025870;28;20049;-87
2022/04/20 05:35:07;;;;;;;9.50;5.60;;;5.80;99.90;;;;;;5047106;28;20479;-83
2022/04/20 05:43:02;;;;;;;8.23;5.40;;;6.20;99.90;;;;;;5035977;28;20034;-83
2022/04/20 05:45:28;;;;;;;8.15;5.43;;;6.60;99.90;;;;;;5022710;28;20033;-83
2022/04/20 05:47:53;;;;;;;10.60;5.60;;;6.60;99.90;;;;;;5037033;28;20424;-84
2022/04/20 05:50:19;;;;;;;11.23;5.25;;;6.80;99.90;;;;;;5018173;28;20124;-84
2022/04/20 05:52:45;;;;;;;9.23;5.35;;;6.80;99.90;;;;;;5037817;28;20048;-84
2022/04/20 05:55:11;;;;;;;9.65;5.57;;;6.90;99.90;;;;;;5031913;28;20045;-84
2022/04/20 05:57:37;;;;;;;11.48;5.40;;;7.80;99.90;;;;;;5036178;28;20049;-84
2022/04/20 06:00:06;;;;;;;9.05;5.57;;;7.50;99.90;;;;;;5024181;28;20042;-84
2022/04/20 06:02:33;;;;;;;11.23;5.10;;;7.20;99.90;;;;;;5031195;28;20077;-84
2022/04/20 06:05:00;;;;;;;8.88;5.22;;;7.70;99.90;;;;;;5032351;28;20120;-84
2022/04/20 06:07:27;;;;;;;11.55;5.18;;;7.60;99.90;;;;;;5032990;28;20040;-84
2022/04/20 06:09:52;;;;;;;7.72;5.13;;;8.20;99.90;;;;;;5029963;28;20483;-88
2022/04/20 06:12:20;;;;;;;10.48;5.13;;;8.80;99.90;;;;;;5044811;28;20048;-89
2022/04/20 06:14:46;;;;;;;8.07;5.10;;;8.70;99.90;;;;;;5005193;28;20069;-89
2022/04/20 06:17:13;;;;;;;9.85;4.53;;;9.00;99.90;;;;;;5013948;28;20049;-88
2022/04/20 06:19:38;;;;;;;8.57;4.72;;;9.40;99.90;;;;;;5030246;28;20488;-87
2022/04/20 06:22:04;;;;;;;7.18;4.60;;;9.70;99.90;;;;;;5014989;28;20071;-88
2022/04/20 06:24:30;;;;;;;9.52;4.90;;;10.00;99.90;;;;;;5015623;28;20082;-90
2022/04/20 06:26:55;;;;;;;7.18;4.50;;;10.70;99.90;;;;;;5026474;28;20038;-88
2022/04/20 06:29:21;;;;;;;8.60;4.20;;;11.80;99.90;;;;;;5024119;28;20033;-89
2022/04/20 06:31:47;;;;;;;8.98;4.75;;;12.00;99.90;;;;;;5027942;28;20094;-88
2022/04/20 06:34:13;;;;;;;19.23;4.50;;;12.70;99.90;;;;;;4988869;28;20041;-87
2022/04/20 06:36:38;;;;;;;9.40;4.07;;;13.20;99.90;;;;;;5017209;28;20041;-89
2022/04/20 06:39:04;;;;;;;5.82;3.58;;;13.80;99.90;;;;;;5038176;28;20075;-89
2022/04/20 06:41:30;;;;;;;4.85;3.35;;;14.30;99.90;;;;;;5041089;28;20792;-88
2022/04/20 06:43:57;;;;;;;8.43;4.00;;;14.60;99.90;;;;;;5020399;28;20065;-86
2022/04/20 06:46:23;;;;;;;5.45;3.97;;;15.00;99.90;;;;;;5005739;28;20065;-86
2022/04/20 06:48:49;;;;;;;6.65;3.83;;;15.40;99.90;;;;;;5038775;28;20033;-86
2022/04/20 06:51:15;;;;;;;7.65;3.85;;;15.90;99.90;;;;;;5021170;28;20052;-86
2022/04/20 06:59:09;;;;;;;10.23;3.67;;;16.90;98.60;;;;;;5064082;28;20102;-86
2022/04/20 07:01:35;;;;;;;6.18;3.70;;;17.60;95.00;;;;;;5020138;28;20033;-86
2022/04/20 07:04:01;;;;;;;5.07;3.40;;;17.70;96.60;;;;;;5025918;28;20422;-86
2022/04/20 07:06:30;;;;;;;7.07;3.60;;;18.00;94.80;;;;;;5035620;28;20106;-86
2022/04/20 07:08:56;;;;;;;6.10;3.60;;;18.10;93.40;;;;;;5022328;28;20037;-87
2022/04/20 07:11:22;;;;;;;5.60;3.80;;;18.20;93.10;;;;;;5038043;28;20083;-86
2022/04/20 07:13:47;;;;;;;6.35;3.33;;;18.40;92.40;;;;;;5007164;28;20038;-86
2022/04/20 07:16:13;;;;;;;7.10;4.00;;;18.70;92.40;;;;;;5037872;28;20536;-88
2022/04/20 07:18:39;;;;;;;7.13;3.90;;;18.90;91.00;;;;;;5035121;28;20400;-88
2022/04/20 07:21:05;;;;;;;6.47;3.78;;;19.20;90.70;;;;;;5034182;28;20060;-89
2022/04/20 07:23:31;;;;;;;6.82;3.65;;;19.20;88.60;;;;;;5024576;28;20045;-89
2022/04/20 07:25:57;;;;;;;7.80;3.47;;;19.40;89.20;;;;;;5040137;28;20062;-89
2022/04/20 07:28:22;;;;;;;5.13;3.40;;;19.80;89.00;;;;;;5018662;28;20041;-88
2022/04/20 07:30:48;;;;;;;6.82;3.53;;;20.00;86.40;;;;;;5035568;28;20090;-88
2022/04/20 07:33:15;;;;;;;4.95;3.60;;;20.30;85.30;;;;;;5049575;28;20037;-87
2022/04/20 07:35:43;;;;;;;5.45;3.55;;;20.70;84.70;;;;;;5024906;28;20037;-87
2022/04/20 07:38:08;;;;;;;5.82;3.35;;;21.00;83.50;;;;;;5028759;28;20040;-86
2022/04/20 07:40:34;;;;;;;5.93;3.33;;;21.30;81.50;;;;;;5024967;28;20038;-87
2022/04/20 07:43:00;;;;;;;5.93;3.38;;;21.40;80.90;;;;;;5033991;28;20615;-92
2022/04/20 07:45:26;;;;;;;6.05;3.28;;;21.60;79.70;;;;;;5024948;28;20045;-87
2022/04/20 07:47:56;;;;;;;7.60;3.60;;;21.80;77.20;;;;;;5025489;28;20067;-86
2022/04/20 07:50:24;;;;;;;6.40;3.50;;;21.60;74.00;;;;;;4999504;28;20385;-89
2022/04/20 07:52:58;;;;;;;5.88;3.53;;;21.70;75.20;;;;;;5039600;28;20529;-89
2022/04/20 07:55:29;;;;;;;5.40;3.53;;;21.70;73.80;;;;;;5039086;28;20099;-89
2022/04/20 07:57:59;;;;;;;6.28;3.40;;;22.00;73.60;;;;;;5040953;28;20045;-86
2022/04/20 08:00:26;;;;;;;6.22;3.20;;;22.30;74.50;;;;;;5022507;28;20380;-86
2022/04/20 08:03:16;;;;;;;5.95;3.38;;;22.70;72.00;;;;;;5035002;28;20052;-86
2022/04/20 08:05:43;;;;;;;5.95;3.38;;;22.70;69.70;;;;;;5019057;28;20046;-91
2022/04/20 08:08:10;;;;;;;4.07;3.00;;;23.10;71.60;;;;;;5018370;28;20045;-91
2022/04/20 08:10:37;;;;;;;5.93;3.20;;;23.30;70.90;;;;;;5018364;28;20103;-90
2022/04/20 08:14:09;;;;;;;5.70;3.35;;;23.60;69.30;;;;;;5018076;28;20121;-90
2022/04/20 08:15:49;;;;;;;;;;;23.60;67.00;;;;;;5035302;28;20087;-90
2022/04/20 08:18:15;;;;;;;5.80;3.30;;;23.80;66.40;;;;;;5051085;28;20371;-90
2022/04/20 08:20:41;;;;;;;4.95;2.90;;;24.10;67.50;;;;;;5035047;28;20049;-91
2022/04/20 08:23:07;;;;;;;4.65;2.60;;;24.10;64.70;;;;;;5017746;28;20099;-90
2022/04/20 08:25:32;;;;;;;5.53;2.70;;;23.90;60.90;;;;;;5034718;28;20124;-91
2022/04/20 08:27:58;;;;;;;4.47;2.38;;;23.50;61.40;;;;;;5034461;28;20466;-91
2022/04/20 08:30:24;;;;;;;3.97;2.50;;;23.40;59.00;;;;;;5018152;28;20034;-90
2022/04/20 08:32:50;;;;;;;4.47;2.17;;;23.60;57.00;;;;;;5018228;28;20068;-91
2022/04/20 08:35:15;;;;;;;3.72;2.50;;;24.20;59.20;;;;;;5017640;28;20075;-90
2022/04/20 08:37:42;;;;;;;5.97;2.60;;;24.40;58.10;;;;;;5017887;28;20033;-90
2022/04/20 08:40:08;;;;;;;4.95;2.40;;;24.40;56.80;;;;;;5034574;28;20045;-89
2022/04/20 08:42:35;;;;;;;3.53;2.30;;;24.60;55.20;;;;;;5017646;28;20551;-92
2022/04/20 08:45:04;;;;;;;6.07;2.50;;;24.70;54.40;;;;;;5034256;28;20049;-90
2022/04/20 08:47:38;;;;;;;6.38;2.35;;;25.00;54.90;;;;;;5034231;28;20442;-89
2022/04/20 08:50:06;;;;;;;3.47;2.10;;;25.40;55.40;;;;;;5034359;28;20559;-90
2022/04/20 08:52:38;;;;;;;3.65;2.22;;;25.60;53.70;;;;;;5034035;28;20060;-91
2022/04/20 08:55:10;;;;;;;3.15;1.90;;;25.70;50.70;;;;;;5016904;28;20037;-86
2022/04/20 08:57:37;;;;;;;2.90;1.85;;;24.80;49.70;;;;;;5017232;28;20112;-86
2022/04/20 09:00:09;;;;;;;4.38;1.90;;;25.00;50.20;;;;;;5033989;28;20037;-86
2022/04/20 09:02:36;;;;;;;3.15;1.83;;;24.40;47.90;;;;;;5033816;28;20128;-86
2022/04/20 09:05:03;;;;;;;2.97;1.90;;;24.40;49.00;;;;;;5017410;28;20403;-86
2022/04/20 09:07:32;;;;;;;4.88;1.98;;;24.60;48.30;;;;;;5033546;28;20090;-86
2022/04/20 09:09:58;;;;;;;3.75;1.90;;;24.60;46.30;;;;;;5017939;28;20037;-86
2022/04/20 09:12:25;;;;;;;3.17;1.92;;;24.60;48.10;;;;;;5033702;28;20399;-83
2022/04/20 09:14:52;;;;;;;2.33;1.77;;;24.50;47.20;;;;;;5017356;28;20068;-83
2022/04/20 09:17:21;;;;;;;2.80;1.60;;;25.00;47.20;;;;;;5033506;28;20411;-83
2022/04/20 09:19:52;;;;;;;3.10;1.98;;;25.00;45.60;;;;;;5016815;28;20083;-84
2022/04/20 09:22:23;;;;;;;3.30;2.10;;;25.30;48.90;;;;;;5026869;28;20411;-84
2022/04/20 09:25:14;;;;;;;3.28;2.30;;;24.50;47.50;;;;;;5033564;28;20048;-84
2022/04/20 09:27:42;;;;;;;4.82;2.08;;;25.50;49.30;;;;;;5024497;28;20158;-83
2022/04/20 09:30:12;;;;;;;6.80;1.80;;;25.80;46.40;;;;;;5028569;28;20041;-88
2022/04/20 09:32:46;;;;;;;6.22;1.83;;;26.30;45.60;;;;;;5033499;28;20407;-88
2022/04/20 09:35:18;;;;;;;2.70;1.50;;;25.80;45.20;;;;;;5016889;28;20483;-88
2022/04/20 09:37:45;;;;;;;2.40;1.50;;;26.10;45.00;;;;;;5033367;28;20041;-88
2022/04/20 09:40:14;;;;;;;2.38;1.58;;;25.30;43.90;;;;;;5019618;28;20046;-89
2022/04/20 09:43:16;;;;;;;3.88;1.60;;;25.00;43.00;;;;;;5033068;28;20124;-90
2022/04/20 09:45:43;;;;;;;2.78;1.73;;;25.60;43.30;;;;;;5026437;28;20384;-84
2022/04/20 09:51:12;;;;;;;3.80;1.60;;;25.90;45.70;;;;;;5019084;28;20069;-83
2022/04/20 09:53:42;;;;;;;4.78;1.60;;;26.00;42.90;;;;;;5033218;28;20491;-83
2022/04/20 09:56:24;;;;;;;2.70;1.45;;;26.40;43.10;;;;;;5032758;28;20037;-84
2022/04/20 09:59:02;;;;;;;3.33;1.40;;;27.10;44.70;;;;;;5032798;28;20426;-84
2022/04/20 10:01:31;;;;;;;3.03;1.88;;;27.50;41.30;;;;;;5003492;28;20052;-83
2022/04/20 10:03:58;;;;;;;2.25;1.60;;;27.10;42.70;;;;;;5032920;28;20049;-83
2022/04/20 10:06:24;;;;;;;2.90;1.50;;;27.20;43.80;;;;;;5032538;28;20400;-84
2022/04/20 10:08:50;;;;;;;3.50;1.58;;;27.30;43.00;;;;;;5015116;28;20052;-84
2022/04/20 10:11:17;;;;;;;2.50;1.60;;;27.20;42.90;;;;;;5032475;28;20386;-84
2022/04/20 10:13:43;;;;;;;2.72;1.63;;;27.20;42.10;;;;;;5002340;28;20052;-84
2022/04/20 10:16:12;;;;;;;2.40;1.67;;;27.50;42.90;;;;;;5049103;28;20045;-84
2022/04/20 10:18:40;;;;;;;2.55;1.60;;;27.60;43.40;;;;;;5031940;28;20053;-89
2022/04/20 10:21:13;;;;;;;3.10;1.63;;;28.10;42.60;;;;;;5015838;28;20055;-89
2022/04/20 10:23:47;;;;;;;4.63;1.75;;;27.80;41.70;;;;;;5000000;28;20042;-88
2022/04/20 10:26:16;;;;;;;3.33;1.90;;;27.90;42.40;;;;;;5032487;28;20053;-89
2022/04/20 10:28:54;;;;;;;4.07;1.90;;;28.30;42.70;;;;;;4996535;28;20034;-88
2022/04/20 10:31:25;;;;;;;4.25;2.03;;;28.40;43.50;;;;;;5056523;28;20041;-88
2022/04/20 10:33:52;;;;;;;2.88;1.75;;;27.80;42.10;;;;;;5015617;28;20408;-89
2022/04/20 10:36:28;;;;;;;4.38;2.00;;;27.80;41.80;;;;;;5015826;28;20064;-89
2022/04/20 10:39:22;;;;;;;4.18;1.80;;;28.50;41.10;;;;;;5032111;28;20049;-89
2022/04/20 10:42:15;;;;;;;4.28;1.80;;;28.30;42.70;;;;;;5015968;28;20046;-89
2022/04/20 10:45:05;;;;;;;4.15;1.95;;;28.40;40.70;;;;;;5021267;28;20049;-89
2022/04/20 10:47:42;;;;;;;2.60;1.65;;;28.50;41.10;;;;;;5015504;28;20037;-89
2022/04/20 10:50:19;;;;;;;4.43;1.70;;;29.00;41.10;;;;;;5032164;28;20403;-89
2022/04/20 10:52:52;;;;;;;3.40;1.70;;;29.40;38.90;;;;;;5032074;28;20052;-88
2022/04/20 10:55:23;;;;;;;2.13;1.45;;;29.40;40.50;;;;;;5031813;28;20049;-89
2022/04/20 10:57:54;;;;;;;3.00;1.90;;;29.60;42.20;;;;;;5015497;28;20034;-89
2022/04/20 11:00:20;;;;;;;2.88;1.70;;;29.30;41.40;;;;;;5032178;28;20041;-89
2022/04/20 11:02:51;;;;;;;2.60;1.73;;;28.80;40.50;;;;;;5031983;28;20052;-89
2022/04/20 11:05:20;;;;;;;3.53;2.00;;;29.00;40.80;;;;;;5018843;28;20037;-89
2022/04/20 11:08:06;;;;;;;3.55;1.77;;;28.70;39.50;;;;;;5032113;28;20464;-90
2022/04/20 11:10:34;;;;;;;2.75;1.73;;;28.70;39.30;;;;;;4986097;28;20044;-83
2022/04/20 11:19:02;;;;;;;3.47;1.70;;;28.20;40.10;;;;;;5056110;22;20448;-78
2022/04/20 11:21:29;;;;;;;3.45;1.73;;;28.90;40.20;;;;;;5053308;28;20049;-78
2022/04/20 11:23:57;;;;;;;3.45;1.73;;;28.70;40.40;;;;;;5062480;28;20082;-78
2022/04/20 11:26:28;;;;;;;3.70;2.00;;;28.80;40.50;;;;;;5075865;28;20498;-78
2022/04/20 11:28:56;;;;;;;2.78;1.92;;;28.70;39.50;;;;;;5076203;28;20443;-77
2022/04/20 11:31:22;;;;;;;3.42;1.98;;;28.20;40.30;;;;;;5055448;28;20047;-77
2022/04/20 11:33:50;;;;;;;3.25;1.90;;;28.30;40.40;;;;;;5048665;28;20041;-77
2022/04/20 11:36:16;;;;;;;4.50;1.98;;;27.80;40.70;;;;;;5059132;28;20044;-77
2022/04/20 11:38:50;;;;;;;3.33;1.90;;;28.20;41.90;;;;;;5058984;28;20044;-77
2022/04/20 11:41:18;;;;;;;2.60;1.80;;;28.10;40.90;;;;;;5058861;28;20044;-77
2022/04/20 11:43:45;;;;;;;4.43;2.05;;;28.30;40.80;;;;;;5057872;28;20047;-83
2022/04/20 11:46:11;;;;;;;3.83;2.00;;;28.60;41.60;;;;;;5075354;28;20117;-83
2022/04/20 11:48:38;;;;;;;2.80;1.88;;;28.50;41.60;;;;;;5075279;28;20048;-83
2022/04/20 11:51:09;;;;;;;2.97;1.95;;;27.90;40.80;;;;;;5058691;28;20405;-86
2022/04/20 11:53:41;;;;;;;3.75;1.80;;;28.40;41.10;;;;;;5056279;28;20044;-86
2022/04/20 11:56:11;;;;;;;2.83;1.85;;;28.40;39.80;;;;;;5069157;28;20041;-86
2022/04/20 11:58:37;;;;;;;4.40;1.77;;;28.10;40.90;;;;;;5055184;28;20051;-81
2022/04/20 12:01:05;;;;;;;7.35;2.22;;;28.10;41.40;;;;;;5073135;28;20402;-81
2022/04/20 12:03:33;;;;;;;3.42;1.65;;;28.10;40.30;;;;;;5074827;28;20505;-81
2022/04/20 12:06:08;;;;;;;2.60;1.70;;;28.10;41.40;;;;;;5054731;28;20430;-81
2022/04/20 12:08:35;;;;;;;;;;;28.30;40.80;;;;;;5058641;28;20072;-81
2022/04/20 12:11:04;;;;;;;3.47;1.55;;;28.50;40.50;;;;;;5058064;28;19916;-81
2022/04/20 12:13:31;;;;;;;2.80;1.58;;;28.40;40.20;;;;;;5074622;28;20486;-81
2022/04/20 12:16:02;;;;;;;1.73;1.40;;;28.60;40.50;;;;;;5065395;28;20041;-84
2022/04/20 12:18:35;;;;;;;3.58;1.55;;;28.50;41.20;;;;;;5054920;28;20044;-83
2022/04/20 12:21:05;;;;;;;2.97;1.67;;;28.90;40.90;;;;;;5072039;28;20045;-84
2022/04/20 12:23:35;;;;;;;2.15;1.35;;;28.70;40.30;;;;;;5071478;28;20059;-83
2022/04/20 12:26:05;;;;;;;3.17;1.85;;;28.30;40.00;;;;;;5073283;28;20123;-84
2022/04/20 12:28:35;;;;;;;3.70;1.75;;;27.90;40.70;;;;;;5041134;28;20047;-84
2022/04/20 12:31:03;;;;;;;3.35;1.50;;;27.60;41.00;;;;;;5073818;28;20112;-84
2022/04/20 12:33:30;;;;;;;4.47;1.50;;;27.20;42.00;;;;;;5057657;28;20040;-80
2022/04/20 12:36:03;;;;;;;3.80;1.50;;;26.70;42.10;;;;;;5054808;28;20493;-80
2022/04/20 12:38:50;;;;;;;2.25;1.33;;;26.40;44.10;;;;;;5068314;28;20045;-80
2022/04/20 12:41:36;;;;;;;2.47;1.55;;;26.20;43.00;;;;;;5074402;28;20048;-80
2022/04/20 12:44:22;;;;;;;2.35;1.50;;;25.90;44.20;;;;;;5074394;28;20048;-81
2022/04/20 12:46:48;;;;;;;1.80;1.20;;;25.20;44.70;;;;;;5053333;28;20040;-81
2022/04/20 12:49:24;;;;;;;3.47;1.60;;;25.20;45.30;;;;;;5074182;28;20043;-80
2022/04/20 12:51:51;;;;;;;1.88;1.25;;;24.80;46.00;;;;;;5074147;28;20065;-80
2022/04/20 12:54:24;;;;;;;2.35;1.40;;;24.60;45.10;;;;;;5074193;28;20371;-80
2022/04/20 13:02:20;;;;;;;2.75;1.30;;;;;;;;;;5073619;28;20490;-79
2022/04/20 13:04:50;;;;;;;2.03;1.10;;;22.70;47.70;;;;;;5073835;28;20482;-80
2022/04/20 13:07:15;;;;;;;2.53;1.23;;;22.70;47.10;;;;;;5068506;28;20044;-86
2022/04/20 13:09:41;;;;;;;2.33;1.30;;;22.50;47.10;;;;;;5068624;28;20040;-85
2022/04/20 13:12:07;;;;;;;1.88;1.20;;;22.10;49.20;;;;;;5073725;28;20119;-85
2022/04/20 13:14:33;;;;;;;2.35;1.40;;;22.00;50.30;;;;;;5056869;28;20040;-85
2022/04/20 13:16:59;;;;;;;4.15;1.50;;;21.60;49.20;;;;;;5074643;28;20116;-85
2022/04/20 13:19:25;;;;;;;2.90;1.40;;;21.60;49.10;;;;;;5062379;28;20380;-85
2022/04/20 13:21:50;;;;;;;2.90;1.38;;;21.60;51.90;;;;;;5047714;28;20398;-79